Time;durP1;ratioP1;P1;durP2;ratioP2;P2;SDS_P1;SDS_P2;PMS_P1;PMS_P2;Temp;Humidity;BMP_temperature;BMP_pressure;BME280_temperature;BME280_humidity;BME280_pressure;Samples;Min_cycle;Max_cycle;Signal;HPM_P1;HPM_P2
2021/07/26 00:02:08;;;;;;;;;;;15.70;99.90;;;;;;5034540;28;19908;-75
2021/07/26 00:04:36;;;;;;;;;;;15.70;99.90;;;;;;5053145;28;19940;-74
2021/07/26 00:07:01;;;;;;;;;;;15.70;99.90;;;;;;5051924;28;20280;-75
2021/07/26 00:09:27;;;;;;;;;;;15.70;99.90;;;;;;5052557;28;19996;-75
2021/07/26 00:11:52;;;;;;;;;;;15.70;99.90;;;;;;5052131;28;19909;-75
2021/07/26 00:14:18;;;;;;;;;;;15.70;99.90;;;;;;5052416;28;19913;-75
2021/07/26 00:16:43;;;;;;;;;;;15.80;99.90;;;;;;5051823;28;19916;-75
2021/07/26 00:19:09;;;;;;;;;;;15.80;99.90;;;;;;5052430;28;20369;-74
2021/07/26 00:21:34;;;;;;;;;;;15.80;99.90;;;;;;5039959;28;19924;-75
2021/07/26 00:24:00;;;;;;;;;;;15.80;99.90;;;;;;5055035;28;20454;-75
2021/07/26 00:26:25;;;;;;;;;;;15.80;99.90;;;;;;5056710;28;19909;-74
2021/07/26 00:28:53;;;;;;;;;;;15.80;99.90;;;;;;5052063;28;19962;-75
2021/07/26 00:31:19;;;;;;;;;;;15.70;99.90;;;;;;5052109;28;19908;-75
2021/07/26 00:34:08;;;;;;;;;;;15.70;99.90;;;;;;5052206;28;19909;-74
2021/07/26 00:36:34;;;;;;;;;;;15.80;99.90;;;;;;5051574;28;19951;-74
2021/07/26 00:39:00;;;;;;;;;;;15.80;99.90;;;;;;5051931;28;19919;-74
2021/07/26 00:41:26;;;;;;;;;;;15.90;99.90;;;;;;5051869;28;20392;-74
2021/07/26 00:43:51;;;;;;;;;;;15.90;99.90;;;;;;5051638;28;19913;-75
2021/07/26 00:46:17;;;;;;;;;;;15.80;99.90;;;;;;5051325;28;19956;-75
2021/07/26 00:48:43;;;;;;;;;;;15.90;99.90;;;;;;5051310;28;19909;-75
2021/07/26 00:51:09;;;;;;;;;;;15.80;99.90;;;;;;5051872;28;19975;-75
2021/07/26 00:53:34;;;;;;;;;;;15.80;99.90;;;;;;5051369;28;20376;-75
2021/07/26 00:56:00;;;;;;;;;;;15.80;99.90;;;;;;5052063;28;19942;-74
2021/07/26 00:58:26;;;;;;;;;;;15.80;99.90;;;;;;5071741;28;19915;-75
2021/07/26 01:00:51;;;;;;;;;;;15.70;99.90;;;;;;5071765;28;20357;-75
2021/07/26 01:03:17;;;;;;;;;;;15.70;99.90;;;;;;5071364;28;19944;-75
2021/07/26 01:05:42;;;;;;;;;;;15.70;99.90;;;;;;5071389;28;19970;-75
2021/07/26 01:08:08;;;;;;;;;;;15.70;99.90;;;;;;5070666;28;19952;-75
2021/07/26 01:10:33;;;;;;;;;;;15.80;99.90;;;;;;5052476;28;19908;-75
2021/07/26 01:12:59;;;;;;;;;;;15.70;99.90;;;;;;5071585;28;19908;-75
2021/07/26 01:15:24;;;;;;;;;;;15.70;99.90;;;;;;5071161;28;20368;-75
2021/07/26 01:18:12;;;;;;;;;;;15.80;99.90;;;;;;5071020;28;19920;-75
2021/07/26 01:20:37;;;;;;;;;;;15.70;99.90;;;;;;5071008;28;19962;-75
2021/07/26 01:23:03;;;;;;;;;;;15.80;99.90;;;;;;5071855;28;19916;-75
2021/07/26 01:25:28;;;;;;;;;;;15.80;99.90;;;;;;5063983;28;19915;-74
2021/07/26 01:27:54;;;;;;;;;;;15.80;99.90;;;;;;5050713;28;19912;-74
2021/07/26 01:30:19;;;;;;;;;;;15.80;99.90;;;;;;5051005;28;20266;-74
2021/07/26 01:32:45;;;;;;;;;;;15.90;99.90;;;;;;5051139;28;19909;-74
2021/07/26 01:35:10;;;;;;;;;;;15.90;99.90;;;;;;5033054;28;20394;-74
2021/07/26 01:37:36;;;;;;;;;;;15.90;99.90;;;;;;5032910;28;20007;-74
2021/07/26 01:40:02;;;;;;;;;;;15.90;99.90;;;;;;5050900;28;19917;-75
2021/07/26 01:42:27;;;;;;;;;;;15.90;99.90;;;;;;5051579;28;20386;-74
2021/07/26 01:44:57;;;;;;;;;;;15.90;99.90;;;;;;5050980;28;19952;-74
2021/07/26 01:47:24;;;;;;;;;;;15.80;99.90;;;;;;5050655;28;19954;-74
2021/07/26 01:50:01;;;;;;;;;;;15.80;99.90;;;;;;5050816;28;19952;-74
2021/07/26 01:52:27;;;;;;;;;;;15.80;99.90;;;;;;5032634;28;19912;-74
2021/07/26 01:54:52;;;;;;;;;;;15.80;99.90;;;;;;5058877;28;19919;-74
2021/07/26 01:57:18;;;;;;;;;;;15.90;99.90;;;;;;5051740;28;19936;-74
2021/07/26 01:59:44;;;;;;;;;;;15.90;99.90;;;;;;5054792;28;20388;-74
2021/07/26 02:02:09;;;;;;;;;;;15.90;99.90;;;;;;5054583;28;19912;-75
2021/07/26 02:04:35;;;;;;;;;;;15.90;99.90;;;;;;5054944;28;19908;-74
2021/07/26 02:07:00;;;;;;;;;;;15.90;99.90;;;;;;5053996;28;19912;-74
2021/07/26 02:09:26;;;;;;;;;;;15.90;99.90;;;;;;5054751;28;19909;-74
2021/07/26 02:11:51;;;;;;;;;;;16.00;99.90;;;;;;5036493;28;19909;-75
2021/07/26 02:14:17;;;;;;;;;;;16.00;99.90;;;;;;5054646;28;20003;-75
2021/07/26 02:16:43;;;;;;;;;;;16.00;99.90;;;;;;5036283;28;19917;-74
2021/07/26 02:19:08;;;;;;;;;;;16.00;99.90;;;;;;5036296;28;19913;-74
2021/07/26 02:21:34;;;;;;;;;;;16.00;99.90;;;;;;5054004;28;19925;-75
2021/07/26 02:24:00;;;;;;;;;;;16.00;99.90;;;;;;5057171;28;19940;-74
2021/07/26 02:26:25;;;;;;;;;;;16.00;99.90;;;;;;5058877;28;19961;-75
2021/07/26 02:28:51;;;;;;;;;;;16.00;99.90;;;;;;5054007;28;19912;-74
2021/07/26 02:31:17;;;;;;;;;;;16.00;99.90;;;;;;5036415;28;19919;-75
2021/07/26 02:33:42;;;;;;;;;;;16.00;99.90;;;;;;5054079;28;19916;-74
2021/07/26 02:36:08;;;;;;;;;;;15.90;99.90;;;;;;5053815;28;19919;-75
2021/07/26 02:38:33;;;;;;;;;;;15.90;99.90;;;;;;5053657;28;20365;-75
2021/07/26 02:41:08;;;;;;;;;;;15.90;99.90;;;;;;5102231;22;20015;-87
2021/07/26 02:43:33;;;;;;;;;;;15.90;99.90;;;;;;5077453;28;19912;-88
2021/07/26 02:45:58;;;;;;;;;;;15.90;99.90;;;;;;5077305;28;20366;-87
2021/07/26 02:48:24;;;;;;;;;;;15.90;99.90;;;;;;5076878;28;19912;-87
2021/07/26 02:50:49;;;;;;;;;;;15.90;99.90;;;;;;5095317;28;19912;-88
2021/07/26 02:53:15;;;;;;;;;;;16.00;99.90;;;;;;5077512;28;19907;-87
2021/07/26 02:55:40;;;;;;;;;;;15.90;99.90;;;;;;5068847;28;19917;-87
2021/07/26 02:58:06;;;;;;;;;;;16.00;99.90;;;;;;5082949;28;19908;-87
2021/07/26 03:00:31;;;;;;;;;;;15.90;99.90;;;;;;5056858;28;20298;-87
2021/07/26 03:02:57;;;;;;;;;;;15.90;99.90;;;;;;5057104;28;19999;-88
2021/07/26 03:05:22;;;;;;;;;;;16.00;99.90;;;;;;5057083;28;20003;-87
2021/07/26 03:07:48;;;;;;;;;;;16.00;99.90;;;;;;5056540;28;19915;-88
2021/07/26 03:10:13;;;;;;;;;;;16.00;99.90;;;;;;5056473;28;19908;-89
2021/07/26 03:12:39;;;;;;;;;;;16.00;99.90;;;;;;5056744;28;19909;-87
2021/07/26 03:15:05;;;;;;;;;;;16.00;99.90;;;;;;5056674;28;20337;-90
2021/07/26 03:17:30;;;;;;;;;;;16.00;99.90;;;;;;5056792;28;20330;-87
2021/07/26 03:19:56;;;;;;;;;;;16.00;99.90;;;;;;5074589;28;19909;-87
2021/07/26 03:22:40;;;;;;;;;;;16.00;99.90;;;;;;5056750;28;19909;-87
2021/07/26 03:25:06;;;;;;;;;;;16.10;99.90;;;;;;5086401;28;19915;-87
2021/07/26 03:27:31;;;;;;;;;;;16.10;99.90;;;;;;5068104;28;20275;-88
2021/07/26 03:29:57;;;;;;;;;;;16.10;99.90;;;;;;5093292;28;19919;-85
2021/07/26 03:32:22;;;;;;;;;;;16.10;99.90;;;;;;5093612;28;19951;-87
2021/07/26 03:34:48;;;;;;;;;;;16.10;99.90;;;;;;5093174;28;19968;-87
2021/07/26 03:37:13;;;;;;;;;;;16.10;99.90;;;;;;5093164;28;20036;-87
2021/07/26 03:39:39;;;;;;;;;;;16.10;99.90;;;;;;5094166;28;20390;-87
2021/07/26 03:42:04;;;;;;;;;;;16.10;99.90;;;;;;5093486;28;19908;-88
2021/07/26 03:44:30;;;;;;;;;;;16.20;99.90;;;;;;5093201;28;19958;-87
2021/07/26 03:46:57;;;;;;;;;;;16.20;99.90;;;;;;5092994;28;19954;-87
2021/07/26 03:49:23;;;;;;;;;;;16.20;99.90;;;;;;5094444;28;19939;-87
2021/07/26 03:51:48;;;;;;;;;;;16.10;99.90;;;;;;5092868;28;20024;-87
2021/07/26 03:54:14;;;;;;;;;;;16.10;99.90;;;;;;5091593;28;19912;-87
2021/07/26 03:56:39;;;;;;;;;;;16.10;99.90;;;;;;5067488;28;19916;-88
2021/07/26 03:59:04;;;;;;;;;;;16.20;99.90;;;;;;5055956;28;19940;-88
2021/07/26 04:01:30;;;;;;;;;;;16.20;99.90;;;;;;5055925;28;20011;-88
2021/07/26 04:03:55;;;;;;;;;;;16.20;99.90;;;;;;5056143;28;19913;-87
2021/07/26 04:06:22;;;;;;;;;;;16.20;99.90;;;;;;5055646;28;20074;-87
2021/07/26 04:08:50;;;;;;;;;;;16.20;99.90;;;;;;5073777;28;19913;-87
2021/07/26 04:11:22;;;;;;;;;;;16.20;99.90;;;;;;5055649;28;20023;-87
2021/07/26 04:13:55;;;;;;;;;;;16.20;99.90;;;;;;5055824;28;19942;-88
2021/07/26 04:16:20;;;;;;;;;;;16.20;99.90;;;;;;5055568;28;20001;-87
2021/07/26 04:18:49;;;;;;;;;;;16.30;99.90;;;;;;5073412;28;19948;-87
2021/07/26 04:21:14;;;;;;;;;;;16.30;99.90;;;;;;5055345;28;19908;-87
2021/07/26 04:23:40;;;;;;;;;;;16.30;99.90;;;;;;5055387;28;20367;-87
2021/07/26 04:26:08;;;;;;;;;;;16.30;99.90;;;;;;5071774;28;19915;-87
2021/07/26 04:28:34;;;;;;;;;;;16.30;99.90;;;;;;5071010;28;19907;-87
2021/07/26 04:31:00;;;;;;;;;;;16.20;99.90;;;;;;5093648;28;19916;-88
2021/07/26 04:33:25;;;;;;;;;;;16.20;99.90;;;;;;5092255;28;19930;-88
2021/07/26 04:35:51;;;;;;;;;;;16.20;99.90;;;;;;5092303;28;20018;-88
2021/07/26 04:38:16;;;;;;;;;;;16.20;99.90;;;;;;5093276;28;20006;-88
2021/07/26 04:40:42;;;;;;;;;;;16.20;99.90;;;;;;5092156;28;20433;-89
2021/07/26 04:43:07;;;;;;;;;;;16.30;99.90;;;;;;5092056;28;19913;-89
2021/07/26 04:45:33;;;;;;;;;;;16.30;99.90;;;;;;5075237;28;19995;-89
2021/07/26 04:47:58;;;;;;;;;;;16.30;99.90;;;;;;5091932;28;19915;-88
2021/07/26 04:50:24;;;;;;;;;;;16.30;99.90;;;;;;5093495;28;19915;-89
2021/07/26 04:52:49;;;;;;;;;;;16.40;99.90;;;;;;5074992;28;20619;-88
2021/07/26 04:55:15;;;;;;;;;;;16.40;99.90;;;;;;5083513;28;19965;-87
2021/07/26 04:57:40;;;;;;;;;;;16.40;99.90;;;;;;5083606;28;19956;-89
2021/07/26 05:00:07;;;;;;;;;;;16.30;99.90;;;;;;5091811;28;20386;-88
2021/07/26 05:02:33;;;;;;;;;;;16.30;99.90;;;;;;5075166;28;19908;-88
2021/07/26 05:04:58;;;;;;;;;;;16.40;99.90;;;;;;5093003;28;19908;-88
2021/07/26 05:07:24;;;;;;;;;;;16.40;99.90;;;;;;5092988;28;19908;-89
2021/07/26 05:09:49;;;;;;;;;;;16.40;99.90;;;;;;5091868;28;19998;-86
2021/07/26 05:12:15;;;;;;;;;;;16.40;99.90;;;;;;5091856;28;20338;-89
2021/07/26 05:14:42;;;;;;;;;;;16.50;99.90;;;;;;5091736;28;19919;-88
2021/07/26 05:17:08;;;;;;;;;;;16.50;99.90;;;;;;5093135;28;19998;-88
2021/07/26 05:19:33;;;;;;;;;;;16.50;99.90;;;;;;5092780;28;19944;-89
2021/07/26 05:21:59;;;;;;;;;;;16.60;99.90;;;;;;5091815;28;20310;-89
2021/07/26 05:24:24;;;;;;;;;;;16.60;99.90;;;;;;5091657;28;19946;-89
2021/07/26 05:27:00;;;;;;;;;;;16.80;99.90;;;;;;5076044;28;19909;-89
2021/07/26 05:29:25;;;;;;;;;;;16.90;99.90;;;;;;5074587;28;19908;-88
2021/07/26 05:31:51;;;;;;;;;;;17.10;99.90;;;;;;5090648;28;19915;-88
2021/07/26 05:34:16;;;;;;;;;;;17.30;99.90;;;;;;5092963;28;20133;-91
2021/07/26 05:36:42;;;;;;;;;;;17.50;99.90;;;;;;5091533;28;19909;-87
2021/07/26 05:39:07;;;;;;;;;;;17.60;99.90;;;;;;5091576;28;19908;-89
2021/07/26 05:41:33;;;;;;;;;;;17.70;99.90;;;;;;5091581;28;19908;-89
2021/07/26 05:43:58;;;;;;;;;;;17.90;99.90;;;;;;5092932;28;19908;-89
2021/07/26 05:46:24;;;;;;;;;;;18.00;99.90;;;;;;5074601;28;20037;-89
2021/07/26 05:48:49;;;;;;;;;;;18.10;99.90;;;;;;5091541;28;19908;-88
2021/07/26 05:51:15;;;;;;;;;;;18.10;99.90;;;;;;5091505;28;19930;-89
2021/07/26 05:53:40;;;;;;;;;;;18.20;99.90;;;;;;5091758;28;19908;-88
2021/07/26 05:56:06;;;;;;;;;;;18.40;99.90;;;;;;5084080;28;19912;-89
2021/07/26 05:58:40;;;;;;;;;;;18.50;99.90;;;;;;5079135;28;20332;-89
2021/07/26 06:01:21;;;;;;;;;;;18.60;99.90;;;;;;5074455;28;20298;-89
2021/07/26 06:03:46;;;;;;;;;;;18.60;99.90;;;;;;5074581;28;19908;-89
2021/07/26 06:06:12;;;;;;;;;;;18.60;99.90;;;;;;5074314;28;19930;-88
2021/07/26 06:08:37;;;;;;;;;;;18.70;99.90;;;;;;5074617;28;19962;-89
2021/07/26 06:11:04;;;;;;;;;;;18.70;99.90;;;;;;5075088;28;20006;-89
2021/07/26 06:13:30;;;;;;;;;;;18.80;99.90;;;;;;5074977;28;19916;-89
2021/07/26 06:15:55;;;;;;;;;;;18.80;99.90;;;;;;5093066;28;20040;-88
2021/07/26 06:18:21;;;;;;;;;;;18.80;99.90;;;;;;5074670;28;19982;-88
2021/07/26 06:20:46;;;;;;;;;;;18.90;99.90;;;;;;5074862;28;19918;-89
2021/07/26 06:23:12;;;;;;;;;;;18.90;99.90;;;;;;5074242;28;20286;-89
2021/07/26 06:25:38;;;;;;;;;;;19.20;99.90;;;;;;5074340;28;19962;-90
2021/07/26 06:28:03;;;;;;;;;;;19.50;99.90;;;;;;5073848;28;19970;-88
2021/07/26 06:30:29;;;;;;;;;;;20.20;99.90;;;;;;5074356;28;19915;-88
2021/07/26 06:32:55;;;;;;;;;;;20.80;99.90;;;;;;5074469;28;19908;-88
2021/07/26 06:35:20;;;;;;;;;;;21.00;99.90;;;;;;5074497;28;19912;-88
2021/07/26 06:37:46;;;;;;;;;;;21.10;99.90;;;;;;5074751;28;19915;-88
2021/07/26 06:40:12;;;;;;;;;;;20.90;99.90;;;;;;5075632;28;20338;-89
2021/07/26 06:42:37;;;;;;;;;;;20.60;99.90;;;;;;5075535;28;20333;-87
2021/07/26 06:45:04;;;;;;;;;;;20.20;99.90;;;;;;5078092;28;19908;-88
2021/07/26 06:47:29;;;;;;;;;;;20.20;99.90;;;;;;5078089;28;19915;-88
2021/07/26 06:49:55;;;;;;;;;;;20.10;99.90;;;;;;5078028;28;19912;-88
2021/07/26 06:52:21;;;;;;;;;;;20.20;99.90;;;;;;5078218;28;20003;-88
2021/07/26 06:54:46;;;;;;;;;;;20.20;99.90;;;;;;5068335;28;19968;-87
2021/07/26 06:57:12;;;;;;;;;;;20.30;99.90;;;;;;5070664;28;19908;-88
2021/07/26 06:59:37;;;;;;;;;;;20.90;99.90;;;;;;5077921;28;19919;-87
2021/07/26 07:02:03;;;;;;;;;;;21.70;99.90;;;;;;5096178;28;20360;-87
2021/07/26 07:04:28;;;;;;;;;;;22.30;99.90;;;;;;5094589;28;19999;-88
2021/07/26 07:06:54;;;;;;;;;;;23.10;99.90;;;;;;5095104;28;19915;-89
2021/07/26 07:09:19;;;;;;;;;;;24.00;99.90;;;;;;5096427;28;19952;-89
2021/07/26 07:11:45;;;;;;;;;;;24.90;99.90;;;;;;5094655;28;20259;-89
2021/07/26 07:14:10;;;;;;;;;;;25.30;99.90;;;;;;5094857;28;19908;-89
2021/07/26 07:16:36;;;;;;;;;;;25.90;99.90;;;;;;5077560;28;19908;-88
2021/07/26 07:19:02;;;;;;;;;;;26.50;99.90;;;;;;5096091;28;19915;-89
2021/07/26 07:21:29;;;;;;;;;;;26.70;99.90;;;;;;5094470;28;20298;-88
2021/07/26 07:24:02;;;;;;;;;;;27.10;99.90;;;;;;5077647;28;20341;-88
2021/07/26 07:26:28;;;;;;;;;;;27.30;99.90;;;;;;5070428;28;19916;-89
2021/07/26 07:28:53;;;;;;;;;;;27.50;99.90;;;;;;5076174;28;20410;-88
2021/07/26 07:31:23;;;;;;;;;;;27.50;99.90;;;;;;5077354;28;19936;-89
2021/07/26 07:33:49;;;;;;;;;;;27.30;99.90;;;;;;5077308;28;19912;-89
2021/07/26 07:36:15;;;;;;;;;;;27.10;99.90;;;;;;5077341;28;19912;-88
2021/07/26 07:38:40;;;;;;;;;;;27.10;99.90;;;;;;5077636;28;19915;-89
2021/07/26 07:41:06;;;;;;;;;;;27.10;99.90;;;;;;5094139;28;20015;-89
2021/07/26 07:43:31;;;;;;;;;;;27.20;99.90;;;;;;5077320;28;19995;-89
2021/07/26 07:45:58;;;;;;;;;;;27.10;99.90;;;;;;5094058;28;19912;-89
2021/07/26 07:48:24;;;;;;;;;;;27.00;99.90;;;;;;5095139;28;20014;-89
2021/07/26 07:50:50;;;;;;;;;;;27.20;99.90;;;;;;5076836;28;19915;-89
2021/07/26 07:53:16;;;;;;;;;;;27.30;99.90;;;;;;5076865;28;19908;-89
2021/07/26 07:55:41;;;;;;;;;;;27.40;99.90;;;;;;5090297;28;19934;-89
2021/07/26 07:58:07;;;;;;;;;;;27.50;99.90;;;;;;5069536;28;19912;-90
2021/07/26 08:00:33;;;;;;;;;;;27.30;99.90;;;;;;5066241;28;19912;-91
2021/07/26 08:03:01;;;;;;;;;;;27.10;99.90;;;;;;5077849;28;19908;-91
2021/07/26 08:05:27;;;;;;;;;;;26.70;99.90;;;;;;5076044;28;19908;-92
2021/07/26 08:07:53;;;;;;;;;;;26.20;99.90;;;;;;5077137;28;19912;-90
2021/07/26 08:10:18;;;;;;;;;;;25.70;99.90;;;;;;5076611;28;19908;-91
2021/07/26 08:12:44;;;;;;;;;;;25.40;99.90;;;;;;5077053;28;19915;-91
2021/07/26 08:15:10;;;;;;;;;;;25.10;99.90;;;;;;5076427;28;20382;-91
2021/07/26 08:17:43;;;;;;;;;;;25.20;99.90;;;;;;5076718;28;19908;-89
2021/07/26 08:20:12;;;;;;;;;;;25.20;99.90;;;;;;5072017;28;20072;-89
2021/07/26 08:22:38;;;;;;;;;;;25.10;99.90;;;;;;5065214;28;20011;-91
2021/07/26 08:25:05;;;;;;;;;;;25.20;99.90;;;;;;5066707;28;19951;-89
2021/07/26 08:27:31;;;;;;;;;;;25.30;99.90;;;;;;5063278;28;19912;-91
2021/07/26 08:29:56;;;;;;;;;;;25.30;99.90;;;;;;5075255;28;20381;-91
2021/07/26 08:32:22;;;;;;;;;;;25.40;99.90;;;;;;5064891;28;19934;-91
2021/07/26 08:34:49;;;;;;;;;;;25.50;99.90;;;;;;5068889;28;20356;-89
2021/07/26 08:37:26;;;;;;;;;;;25.70;99.90;;;;;;5067095;28;19908;-89
2021/07/26 08:39:51;;;;;;;;;;;26.00;99.90;;;;;;5058327;28;19917;-89
2021/07/26 08:42:17;;;;;;;;;;;26.40;99.90;;;;;;5057158;28;19919;-89
2021/07/26 08:44:42;;;;;;;;;;;26.80;99.90;;;;;;5057457;28;19908;-90
2021/07/26 08:47:08;;;;;;;;;;;26.80;99.90;;;;;;5057405;28;19975;-90
2021/07/26 08:49:34;;;;;;;;;;;27.10;99.90;;;;;;5057306;28;19973;-90
2021/07/26 08:52:00;;;;;;;;;;;27.50;99.90;;;;;;5057381;28;19908;-90
2021/07/26 08:54:27;;;;;;;;;;;27.80;99.90;;;;;;5075346;28;19919;-91
2021/07/26 08:56:53;;;;;;;;;;;28.10;99.90;;;;;;5093825;28;19908;-91
2021/07/26 08:59:19;;;;;;;;;;;28.10;97.90;;;;;;5078262;28;20412;-92
2021/07/26 09:01:45;;;;;;;;;;;28.20;99.90;;;;;;5094965;28;19909;-91
2021/07/26 09:04:11;;;;;;;;;;;28.50;99.10;;;;;;5078366;28;19908;-91
2021/07/26 09:06:37;;;;;;;;;;;28.70;99.90;;;;;;5094437;28;19914;-91
2021/07/26 09:09:02;;;;;;;;;;;28.80;99.70;;;;;;5078298;28;19908;-91
2021/07/26 09:11:41;;;;;;;;;;;29.10;99.90;;;;;;5094674;28;19915;-91
2021/07/26 09:14:07;;;;;;;;;;;29.20;97.40;;;;;;5077854;28;19908;-91
2021/07/26 09:16:32;;;;;;;;;;;29.10;97.10;;;;;;5094636;28;20389;-91
2021/07/26 09:19:02;;;;;;;;;;;28.70;97.50;;;;;;5094610;28;19963;-91
2021/07/26 09:21:51;;;;;;;;;;;28.30;98.70;;;;;;5077335;28;19958;-92
2021/07/26 09:24:24;;;;;;;;;;;28.20;98.20;;;;;;5077743;28;19958;-91
2021/07/26 09:26:49;;;;;;;;;;;28.50;98.10;;;;;;5076808;28;19955;-91
2021/07/26 09:29:25;;;;;;;;;;;28.70;97.50;;;;;;5093216;28;20424;-89
2021/07/26 09:32:01;;;;;;;;;;;28.80;97.50;;;;;;5076452;28;19909;-91
2021/07/26 09:34:27;;;;;;;;;;;28.60;98.70;;;;;;5076306;28;20003;-91
2021/07/26 09:36:53;;;;;;;;;;;28.60;97.90;;;;;;5076322;28;20006;-90
2021/07/26 09:39:29;;;;;;;;;;;28.50;98.10;;;;;;5093641;28;19952;-90
2021/07/26 09:41:56;;;;;;;;;;;28.50;98.70;;;;;;5075665;28;19935;-91
2021/07/26 09:44:28;;;;;;;;;;;28.60;98.00;;;;;;5075846;28;19908;-91
2021/07/26 09:47:13;;;;;;;;;;;28.70;99.50;;;;;;5076443;28;19999;-90
2021/07/26 09:49:39;;;;;;;;;;;29.00;97.00;;;;;;5075248;28;19962;-91
2021/07/26 09:52:07;;;;;;;;;;;29.30;95.20;;;;;;5092470;28;19908;-90
2021/07/26 09:54:39;;;;;;;;;;;29.80;96.60;;;;;;5075359;28;20299;-91
2021/07/26 09:57:17;;;;;;;;;;;30.10;96.80;;;;;;5063818;28;19944;-91
2021/07/26 09:59:44;;;;;;;;;;;30.50;96.10;;;;;;5055402;28;19915;-91
2021/07/26 10:02:13;;;;;;;;;;;30.60;93.60;;;;;;5055935;28;19908;-91
2021/07/26 10:04:39;;;;;;;;;;;30.70;92.50;;;;;;5055631;28;19909;-91
2021/07/26 10:07:04;;;;;;;;;;;30.80;93.50;;;;;;5057128;28;19983;-91
2021/07/26 10:09:30;;;;;;;;;;;31.20;92.70;;;;;;5055604;28;19916;-91
2021/07/26 10:11:55;;;;;;;;;;;31.20;93.00;;;;;;5055551;28;19915;-91
2021/07/26 10:14:21;;;;;;;;;;;31.40;93.30;;;;;;5055099;28;19939;-91
2021/07/26 10:16:47;;;;;;;;;;;31.60;94.80;;;;;;5054545;28;19923;-91
2021/07/26 10:19:13;;;;;;;;;;;31.60;92.00;;;;;;5065719;28;19909;-91
2021/07/26 10:21:39;;;;;;;;;;;31.80;92.60;;;;;;5061803;28;19908;-92
2021/07/26 10:24:06;;;;;;;;;;;31.70;90.00;;;;;;5059944;28;19992;-92
2021/07/26 10:26:45;;;;;;;;;;;32.00;91.30;;;;;;5060308;28;19909;-91
2021/07/26 10:29:11;;;;;;;;;;;32.30;91.10;;;;;;5060745;28;20260;-92
2021/07/26 10:31:37;;;;;;;;;;;32.50;90.40;;;;;;5060192;28;19919;-92
2021/07/26 10:34:08;;;;;;;;;;;32.80;92.90;;;;;;5060117;28;19916;-90
2021/07/26 10:36:45;;;;;;;;;;;32.50;86.00;;;;;;5059936;28;20311;-92
2021/07/26 10:39:11;;;;;;;;;;;31.90;91.30;;;;;;5059842;28;19908;-91
2021/07/26 10:41:43;;;;;;;;;;;31.50;87.40;;;;;;5059921;28;19973;-91
2021/07/26 10:44:23;;;;;;;;;;;31.40;93.00;;;;;;5059336;28;19915;-91
2021/07/26 10:47:08;;;;;;;;;;;31.20;87.00;;;;;;5058347;28;20290;-91
2021/07/26 10:49:43;;;;;;;;;;;30.50;90.40;;;;;;5058526;28;20284;-91
2021/07/26 10:52:29;;;;;;;;;;;30.30;92.10;;;;;;5058774;28;19916;-91
2021/07/26 10:54:57;;;;;;;;;;;30.30;91.80;;;;;;5047996;28;19919;-91
2021/07/26 10:57:38;;;;;;;;;;;30.10;90.90;;;;;;5075762;28;19909;-91
2021/07/26 11:00:09;;;;;;;;;;;29.90;91.50;;;;;;5058559;28;19961;-90
2021/07/26 11:02:36;;;;;;;;;;;29.90;92.10;;;;;;5058157;28;20002;-91
2021/07/26 11:05:20;;;;;;;;;;;30.40;92.80;;;;;;5058410;28;20437;-89
2021/07/26 11:07:46;;;;;;;;;;;30.80;87.80;;;;;;5058279;28;19908;-89
2021/07/26 11:10:31;;;;;;;;;;;31.00;88.50;;;;;;5058380;28;19908;-89
2021/07/26 11:12:56;;;;;;;;;;;30.60;84.90;;;;;;5058259;28;19960;-92
2021/07/26 11:15:22;;;;;;;;;;;30.60;91.00;;;;;;5058376;28;19982;-89
2021/07/26 11:18:08;;;;;;;;;;;30.70;90.70;;;;;;5069842;28;19912;-90
2021/07/26 11:20:52;;;;;;;;;;;30.80;90.70;;;;;;5078159;28;19908;-90
2021/07/26 11:23:47;;;;;;;;;;;30.80;91.20;;;;;;5078646;28;19912;-90
2021/07/26 11:26:13;;;;;;;;;;;30.40;89.90;;;;;;5061588;28;19908;-90
2021/07/26 11:28:39;;;;;;;;;;;30.20;90.00;;;;;;5078404;28;20271;-89
2021/07/26 11:31:04;;;;;;;;;;;30.10;88.30;;;;;;5079230;28;19991;-90
2021/07/26 11:33:31;;;;;;;;;;;30.10;90.20;;;;;;5078781;28;19938;-90
2021/07/26 11:35:59;;;;;;;;;;;30.10;91.80;;;;;;5077902;28;19912;-90
2021/07/26 11:38:24;;;;;;;;;;;29.90;91.40;;;;;;5078348;28;19908;-89
2021/07/26 11:40:50;;;;;;;;;;;29.80;92.00;;;;;;5078077;28;20381;-90
2021/07/26 11:43:15;;;;;;;;;;;29.40;90.40;;;;;;5077896;28;19941;-89
2021/07/26 11:45:42;;;;;;;;;;;29.10;91.10;;;;;;5077966;28;19915;-89
2021/07/26 11:48:08;;;;;;;;;;;28.80;92.00;;;;;;5069477;28;20004;-89
2021/07/26 11:50:34;;;;;;;;;;;28.60;92.40;;;;;;5077867;28;19909;-89
2021/07/26 11:53:00;;;;;;;;;;;28.40;93.30;;;;;;5077464;28;20450;-89
2021/07/26 11:55:29;;;;;;;;;;;28.00;93.80;;;;;;5077595;28;19964;-90
2021/07/26 11:57:56;;;;;;;;;;;27.70;94.10;;;;;;5077238;28;19915;-90
2021/07/26 12:00:51;;;;;;;;;;;27.50;93.90;;;;;;5077354;28;19915;-90
2021/07/26 12:03:19;;;;;;;;;;;27.30;95.70;;;;;;5059725;28;19938;-89
2021/07/26 12:05:44;;;;;;;;;;;27.00;95.20;;;;;;5077334;28;20370;-89
2021/07/26 12:08:11;;;;;;;;;;;26.80;96.10;;;;;;5077055;28;19930;-89
2021/07/26 12:10:37;;;;;;;;;;;26.60;96.70;;;;;;5077021;28;19908;-89
2021/07/26 12:13:09;;;;;;;;;;;26.50;96.80;;;;;;5076950;28;19908;-88
2021/07/26 12:15:35;;;;;;;;;;;26.30;97.40;;;;;;5076502;28;19934;-89
2021/07/26 12:18:02;;;;;;;;;;;26.20;97.80;;;;;;5068071;28;20286;-89
2021/07/26 12:20:28;;;;;;;;;;;26.10;99.30;;;;;;5076749;28;19919;-88
2021/07/26 12:22:54;;;;;;;;;;;26.00;99.40;;;;;;5095342;28;19908;-89
2021/07/26 12:25:22;;;;;;;;;;;25.90;99.00;;;;;;5076717;28;19915;-89
2021/07/26 12:27:55;;;;;;;;;;;25.90;98.90;;;;;;5076095;28;19916;-88
2021/07/26 12:30:20;;;;;;;;;;;25.70;99.30;;;;;;5076588;28;19908;-89
2021/07/26 12:32:48;;;;;;;;;;;25.60;99.90;;;;;;5076314;28;19908;-89
2021/07/26 12:35:22;;;;;;;;;;;25.60;99.90;;;;;;5094427;28;20292;-89
2021/07/26 12:38:08;;;;;;;;;;;25.50;99.90;;;;;;5094411;28;19919;-89
2021/07/26 12:40:35;;;;;;;;;;;25.40;99.90;;;;;;5075772;28;19968;-88
2021/07/26 12:43:03;;;;;;;;;;;25.30;99.90;;;;;;5076751;28;19908;-89
2021/07/26 12:45:29;;;;;;;;;;;25.20;99.90;;;;;;5076798;28;19909;-89
2021/07/26 12:47:54;;;;;;;;;;;25.10;99.90;;;;;;5068024;28;19916;-89
2021/07/26 12:50:20;;;;;;;;;;;25.00;99.90;;;;;;5076838;28;19915;-89
2021/07/26 12:52:45;;;;;;;;;;;24.90;99.90;;;;;;5076801;28;19954;-88
2021/07/26 12:55:17;;;;;;;;;;;24.70;99.90;;;;;;5076312;28;19912;-89
2021/07/26 12:57:43;;;;;;;;;;;24.50;99.90;;;;;;5076238;28;19908;-88
2021/07/26 13:00:09;;;;;;;;;;;24.20;99.90;;;;;;5076451;28;19963;-89
2021/07/26 13:02:35;;;;;;;;;;;23.90;99.90;;;;;;5076510;28;19931;-89
2021/07/26 13:05:07;;;;;;;;;;;23.70;99.90;;;;;;5077078;28;20267;-89
2021/07/26 13:07:33;;;;;;;;;;;23.60;99.90;;;;;;5076840;28;20370;-90
2021/07/26 13:09:58;;;;;;;;;;;23.60;99.90;;;;;;5077150;28;19915;-89
2021/07/26 13:12:24;;;;;;;;;;;23.70;99.90;;;;;;5077125;28;20007;-88
2021/07/26 13:14:49;;;;;;;;;;;23.90;99.90;;;;;;5076830;28;19919;-89
2021/07/26 13:17:15;;;;;;;;;;;24.00;99.90;;;;;;5069557;28;19908;-89
2021/07/26 13:19:40;;;;;;;;;;;24.10;99.90;;;;;;5092229;28;20405;-90
2021/07/26 13:22:06;;;;;;;;;;;24.30;99.90;;;;;;5080203;28;19947;-89
2021/07/26 13:24:31;;;;;;;;;;;24.40;99.90;;;;;;5080619;28;19915;-90
2021/07/26 13:26:57;;;;;;;;;;;24.50;99.90;;;;;;5081015;28;20348;-90
2021/07/26 13:29:22;;;;;;;;;;;24.60;99.90;;;;;;5080036;28;19908;-89
2021/07/26 13:31:48;;;;;;;;;;;25.00;99.90;;;;;;5080086;28;20409;-90
2021/07/26 13:34:13;;;;;;;;;;;25.30;99.90;;;;;;5079580;28;20057;-89
2021/07/26 13:36:39;;;;;;;;;;;25.50;99.90;;;;;;5078585;28;20429;-89
2021/07/26 13:39:04;;;;;;;;;;;25.70;99.90;;;;;;5078557;28;20300;-90
2021/07/26 13:41:30;;;;;;;;;;;25.90;99.90;;;;;;5078215;28;19919;-89
2021/07/26 13:43:55;;;;;;;;;;;26.10;99.90;;;;;;5077635;28;19963;-89
2021/07/26 13:46:21;;;;;;;;;;;26.10;99.90;;;;;;5076559;28;19908;-89
2021/07/26 13:48:46;;;;;;;;;;;26.00;99.90;;;;;;5085246;28;19908;-90
2021/07/26 13:51:12;;;;;;;;;;;25.70;99.90;;;;;;5076135;28;19908;-89
2021/07/26 13:53:37;;;;;;;;;;;25.50;99.90;;;;;;5077211;28;20554;-88
2021/07/26 13:56:03;;;;;;;;;;;25.30;99.90;;;;;;5079081;28;20015;-89
2021/07/26 13:58:28;;;;;;;;;;;25.30;99.90;;;;;;5096758;28;19909;-89
2021/07/26 14:00:54;;;;;;;;;;;25.20;99.90;;;;;;5080060;28;20290;-89
2021/07/26 14:03:20;;;;;;;;;;;25.30;99.90;;;;;;5079007;28;19908;-90
2021/07/26 14:05:46;;;;;;;;;;;25.10;99.90;;;;;;5081767;28;19916;-90
2021/07/26 14:08:11;;;;;;;;;;;24.90;99.90;;;;;;5080613;28;19957;-90
2021/07/26 14:10:37;;;;;;;;;;;24.40;99.90;;;;;;5098427;28;19947;-88
2021/07/26 14:13:02;;;;;;;;;;;23.70;99.90;;;;;;5079817;28;19962;-90
2021/07/26 14:15:28;;;;;;;;;;;23.20;99.90;;;;;;5097438;28;19916;-89
2021/07/26 14:17:53;;;;;;;;;;;22.70;99.90;;;;;;5076356;28;19987;-89